createdAt,value
2018-12-26T00:00:04.054Z,1.10
2018-12-26T00:02:36.928Z,1.00
2018-12-26T00:05:08.081Z,0.90
2018-12-26T00:07:39.385Z,0.90
2018-12-26T00:10:10.554Z,0.80
2018-12-26T00:12:41.702Z,0.80
2018-12-26T00:15:12.784Z,0.70
2018-12-26T00:17:44.041Z,0.60
2018-12-26T00:20:15.387Z,0.60
2018-12-26T00:22:47.642Z,0.50
2018-12-26T00:25:18.747Z,0.50
2018-12-26T00:27:49.912Z,0.40
2018-12-26T00:30:21.050Z,0.40
2018-12-26T00:32:52.342Z,0.40
2018-12-26T00:35:23.549Z,0.40
2018-12-26T00:37:54.731Z,0.50
2018-12-26T00:40:25.973Z,0.40
2018-12-26T00:42:57.070Z,0.40
2018-12-26T00:45:28.202Z,0.40
2018-12-26T00:48:00.280Z,0.40
2018-12-26T00:50:32.043Z,0.40
2018-12-26T00:53:03.261Z,0.40
2018-12-26T00:55:34.650Z,0.40
2018-12-26T00:58:05.879Z,0.40
2018-12-26T01:00:37.256Z,0.40
2018-12-26T01:03:11.320Z,0.40
2018-12-26T01:05:42.662Z,0.40
2018-12-26T01:08:13.795Z,0.40
2018-12-26T01:10:45.006Z,0.40
2018-12-26T01:13:16.073Z,0.40
2018-12-26T01:15:47.185Z,0.40
2018-12-26T01:18:18.326Z,0.30
2018-12-26T01:20:49.446Z,0.30
2018-12-26T01:23:20.819Z,0.30
2018-12-26T01:25:52.020Z,0.30
2018-12-26T01:28:25.438Z,0.30
2018-12-26T01:30:56.687Z,0.30
2018-12-26T01:33:27.754Z,0.30
2018-12-26T01:36:01.933Z,0.30
2018-12-26T01:38:33.422Z,0.30
2018-12-26T01:41:04.855Z,0.30
2018-12-26T01:43:36.028Z,0.30
2018-12-26T01:46:07.287Z,0.30
2018-12-26T01:48:39.242Z,0.30
2018-12-26T01:51:10.424Z,0.30
2018-12-26T01:53:41.623Z,0.30
2018-12-26T01:56:12.768Z,0.30
2018-12-26T01:58:43.942Z,0.20
2018-12-26T02:01:15.122Z,0.30
2018-12-26T02:03:46.243Z,0.30
2018-12-26T02:06:17.405Z,0.30
2018-12-26T02:08:48.621Z,0.30
2018-12-26T02:11:19.836Z,0.30
2018-12-26T02:13:51.046Z,0.30
2018-12-26T02:16:22.061Z,0.30
2018-12-26T02:18:54.158Z,0.30
2018-12-26T02:21:25.365Z,0.30
2018-12-26T02:23:56.689Z,0.20
2018-12-26T02:26:36.264Z,0.20
2018-12-26T02:29:00.657Z,0.20
2018-12-26T02:31:31.943Z,0.20
2018-12-26T02:34:03.076Z,0.20
2018-12-26T02:36:35.393Z,0.30
2018-12-26T02:39:08.026Z,0.30
2018-12-26T02:41:39.290Z,0.30
2018-12-26T02:44:10.450Z,0.30
2018-12-26T02:46:41.700Z,0.30
2018-12-26T02:49:14.865Z,0.30
2018-12-26T02:51:49.074Z,0.30
2018-12-26T02:54:20.543Z,0.30
2018-12-26T02:56:51.742Z,0.30
2018-12-26T02:59:22.906Z,0.30
2018-12-26T03:01:54.049Z,0.40
2018-12-26T03:04:25.286Z,0.40
2018-12-26T03:06:56.501Z,0.40
2018-12-26T03:09:27.614Z,0.40
2018-12-26T03:12:01.821Z,0.50
2018-12-26T03:14:32.919Z,0.50
2018-12-26T03:17:04.117Z,0.50
2018-12-26T03:19:35.315Z,0.50
2018-12-26T03:22:06.628Z,0.50
2018-12-26T03:24:37.898Z,0.50
2018-12-26T03:27:09.107Z,0.60
2018-12-26T03:29:40.243Z,0.60
2018-12-26T03:32:12.520Z,0.60
2018-12-26T03:34:44.888Z,0.60
2018-12-26T03:37:16.049Z,0.60
2018-12-26T03:39:47.245Z,0.70
2018-12-26T03:42:18.402Z,0.70
2018-12-26T03:44:49.921Z,0.70
2018-12-26T03:47:21.779Z,0.70
2018-12-26T03:49:52.851Z,0.70
2018-12-26T03:52:24.064Z,0.70
2018-12-26T03:54:55.465Z,0.70
2018-12-26T03:57:27.639Z,0.70
2018-12-26T03:59:59.030Z,0.70
2018-12-26T04:02:30.369Z,0.70
2018-12-26T04:05:01.655Z,0.70
2018-12-26T04:07:32.906Z,0.70
2018-12-26T04:10:04.153Z,0.70
2018-12-26T04:12:35.395Z,0.70
2018-12-26T04:15:06.676Z,0.70
2018-12-26T04:17:37.971Z,0.70
2018-12-26T04:20:10.832Z,0.80
2018-12-26T04:22:42.405Z,0.80
2018-12-26T04:25:13.610Z,0.80
2018-12-26T04:27:44.753Z,0.80
2018-12-26T04:30:15.895Z,0.80
2018-12-26T04:32:47.070Z,0.80
2018-12-26T04:35:18.104Z,0.90
2018-12-26T04:37:49.241Z,0.90
2018-12-26T04:40:20.322Z,0.90
2018-12-26T04:42:51.464Z,0.90
2018-12-26T04:45:22.577Z,0.90
2018-12-26T04:47:54.785Z,0.90
2018-12-26T04:50:26.007Z,1.00
2018-12-26T04:52:57.164Z,1.00
2018-12-26T04:55:28.480Z,1.00
2018-12-26T04:57:59.680Z,1.00
2018-12-26T05:00:30.694Z,1.00
2018-12-26T05:03:01.912Z,1.10
2018-12-26T05:05:33.615Z,1.10
2018-12-26T05:08:04.722Z,1.10
2018-12-26T05:10:35.951Z,1.10
2018-12-26T05:13:07.052Z,1.10
2018-12-26T05:15:38.094Z,1.20
2018-12-26T05:18:09.272Z,1.20
2018-12-26T05:20:40.356Z,1.20
2018-12-26T05:23:11.429Z,1.20
2018-12-26T05:25:42.548Z,1.20
2018-12-26T05:28:13.770Z,1.30
2018-12-26T05:30:44.831Z,1.30
2018-12-26T05:33:16.035Z,1.30
2018-12-26T05:35:47.233Z,1.30
2018-12-26T05:38:18.360Z,1.40
2018-12-26T05:40:49.456Z,1.40
2018-12-26T05:43:20.816Z,1.40
2018-12-26T05:45:52.013Z,1.40
2018-12-26T05:48:24.320Z,1.40
2018-12-26T05:50:55.476Z,1.40
2018-12-26T05:53:29.615Z,1.40
2018-12-26T05:56:00.672Z,1.40
2018-12-26T05:58:31.913Z,1.50
2018-12-26T06:01:03.134Z,1.50
2018-12-26T06:03:34.336Z,1.50
2018-12-26T06:06:05.656Z,1.50
2018-12-26T06:08:36.680Z,1.50
2018-12-26T06:11:07.722Z,1.50
2018-12-26T06:13:38.823Z,1.50
2018-12-26T06:16:10.035Z,1.50
2018-12-26T06:18:41.171Z,1.60
2018-12-26T06:21:12.336Z,1.60
2018-12-26T06:23:43.591Z,1.60
2018-12-26T06:26:14.708Z,1.60
2018-12-26T06:28:47.155Z,1.60
2018-12-26T06:31:18.381Z,1.60
2018-12-26T06:33:49.482Z,1.60
2018-12-26T06:36:20.699Z,1.60
2018-12-26T06:38:51.818Z,1.60
2018-12-26T06:41:23.058Z,1.60
2018-12-26T06:43:54.695Z,1.60
2018-12-26T06:46:26.521Z,1.60
2018-12-26T06:48:58.586Z,1.70
2018-12-26T06:51:29.737Z,1.70
2018-12-26T06:54:01.782Z,1.70
2018-12-26T06:56:32.963Z,1.70
2018-12-26T06:59:04.236Z,1.70
2018-12-26T07:01:35.391Z,1.70
2018-12-26T07:04:06.447Z,1.70
2018-12-26T07:06:37.528Z,1.70
2018-12-26T07:09:08.604Z,1.70
2018-12-26T07:11:40.651Z,1.80
2018-12-26T07:14:11.796Z,1.80
2018-12-26T07:16:42.970Z,1.80
2018-12-26T07:19:14.227Z,1.80
2018-12-26T07:21:45.304Z,1.70
2018-12-26T07:24:16.393Z,1.70
2018-12-26T07:26:47.382Z,1.70
2018-12-26T07:29:18.577Z,1.70
2018-12-26T07:31:49.636Z,1.70
2018-12-26T07:34:20.790Z,1.70
2018-12-26T07:36:51.836Z,1.70
2018-12-26T07:39:22.864Z,1.70
2018-12-26T07:41:54.016Z,1.70
2018-12-26T07:44:25.098Z,1.70
2018-12-26T07:46:56.213Z,1.70
2018-12-26T07:49:28.351Z,1.80
2018-12-26T07:52:00.191Z,1.80
2018-12-26T07:54:31.545Z,1.80
2018-12-26T07:57:02.783Z,1.80
2018-12-26T07:59:37.659Z,1.80
2018-12-26T08:02:07.003Z,1.80
2018-12-26T08:04:38.133Z,1.70
2018-12-26T08:07:09.274Z,1.80
2018-12-26T08:09:40.347Z,1.80
2018-12-26T08:12:11.528Z,1.80
2018-12-26T08:14:42.699Z,1.80
2018-12-26T08:17:13.799Z,1.90
2018-12-26T08:19:44.839Z,1.80
2018-12-26T08:22:16.204Z,1.80
2018-12-26T08:24:47.403Z,1.80
2018-12-26T08:27:18.933Z,1.90
2018-12-26T08:29:50.198Z,1.90
2018-12-26T08:32:21.423Z,1.80
2018-12-26T08:34:52.586Z,1.80
2018-12-26T08:37:23.776Z,1.80
2018-12-26T08:39:54.912Z,1.80
2018-12-26T08:42:28.074Z,1.80
2018-12-26T08:44:59.224Z,1.80
2018-12-26T08:47:31.347Z,1.80
2018-12-26T08:50:02.675Z,1.80
2018-12-26T08:52:33.874Z,1.80
2018-12-26T08:55:05.315Z,1.80
2018-12-26T08:57:36.443Z,1.80
2018-12-26T09:00:08.282Z,1.80
2018-12-26T09:02:39.379Z,1.80
2018-12-26T09:05:10.400Z,1.90
2018-12-26T09:07:41.523Z,1.80
2018-12-26T09:10:12.571Z,1.90
2018-12-26T09:12:43.752Z,1.90
2018-12-26T09:15:14.847Z,1.90
2018-12-26T09:17:45.996Z,1.90
2018-12-26T09:20:17.009Z,1.90
2018-12-26T09:22:48.177Z,1.90
2018-12-26T09:25:19.314Z,2.00
2018-12-26T09:27:50.713Z,2.00
2018-12-26T09:30:21.960Z,1.90
2018-12-26T09:32:53.005Z,2.00
2018-12-26T09:35:24.008Z,2.00
2018-12-26T09:37:55.101Z,1.90
2018-12-26T09:40:26.289Z,1.90
2018-12-26T09:42:57.999Z,1.90
2018-12-26T09:45:29.136Z,2.00
2018-12-26T09:48:00.309Z,1.90
2018-12-26T09:50:31.889Z,2.00
2018-12-26T09:53:03.055Z,2.00
2018-12-26T09:55:35.031Z,2.00
2018-12-26T09:58:06.380Z,2.00
2018-12-26T10:00:37.441Z,2.00
2018-12-26T10:03:08.567Z,2.00
2018-12-26T10:05:39.711Z,2.10
2018-12-26T10:08:10.855Z,2.10
2018-12-26T10:10:42.045Z,2.00
2018-12-26T10:13:13.297Z,2.10
2018-12-26T10:15:44.423Z,2.10
2018-12-26T10:18:15.615Z,2.10
2018-12-26T10:20:47.790Z,2.10
2018-12-26T10:23:19.347Z,2.20
2018-12-26T10:25:50.438Z,2.20
2018-12-26T10:28:21.563Z,2.20
2018-12-26T10:30:52.955Z,2.20
2018-12-26T10:33:28.237Z,2.20
2018-12-26T10:35:59.363Z,2.20
2018-12-26T10:38:30.534Z,2.30
2018-12-26T10:41:01.688Z,2.30
2018-12-26T10:43:32.818Z,2.30
2018-12-26T10:46:03.965Z,2.40
2018-12-26T10:48:35.059Z,2.30
2018-12-26T10:51:09.125Z,2.40
2018-12-26T10:53:40.347Z,2.40
2018-12-26T10:56:11.616Z,2.40
2018-12-26T10:58:42.806Z,2.40
2018-12-26T11:01:13.890Z,2.40
2018-12-26T11:03:46.107Z,2.40
2018-12-26T11:06:17.226Z,2.40
2018-12-26T11:08:48.425Z,2.50
2018-12-26T11:11:19.664Z,2.40
2018-12-26T11:13:50.684Z,2.50
2018-12-26T11:16:21.776Z,2.50
2018-12-26T11:18:53.302Z,2.50
2018-12-26T11:21:25.966Z,2.50
2018-12-26T11:23:57.094Z,2.50
2018-12-26T11:26:28.171Z,2.50
2018-12-26T11:28:59.345Z,2.50
2018-12-26T11:31:30.383Z,2.60
2018-12-26T11:34:01.621Z,2.60
2018-12-26T11:36:32.815Z,2.60
2018-12-26T11:39:05.505Z,2.60
2018-12-26T11:41:36.794Z,2.60
2018-12-26T11:44:07.977Z,2.60
2018-12-26T11:46:39.164Z,2.70
2018-12-26T11:49:10.354Z,2.70
2018-12-26T11:51:42.429Z,2.80
2018-12-26T11:54:17.862Z,2.80
2018-12-26T11:56:49.355Z,2.90
2018-12-26T11:59:27.203Z,2.90
2018-12-26T12:01:53.415Z,2.90
2018-12-26T12:04:24.646Z,2.90
2018-12-26T12:06:55.840Z,2.90
2018-12-26T12:09:26.980Z,2.90
2018-12-26T12:11:58.089Z,2.90
2018-12-26T12:14:29.295Z,2.90
2018-12-26T12:17:01.552Z,3.00
2018-12-26T12:19:32.721Z,3.00
2018-12-26T12:22:03.920Z,3.00
2018-12-26T12:24:35.093Z,3.10
2018-12-26T12:27:06.292Z,3.20
2018-12-26T12:29:37.389Z,3.20
2018-12-26T12:32:08.612Z,3.20
2018-12-26T12:34:39.849Z,3.20
2018-12-26T12:37:11.476Z,3.30
2018-12-26T12:39:42.628Z,3.30
2018-12-26T12:42:13.942Z,3.30
2018-12-26T12:44:45.289Z,3.30
2018-12-26T12:47:16.614Z,3.30
2018-12-26T12:49:48.092Z,3.30
2018-12-26T12:52:20.132Z,3.40
2018-12-26T12:54:53.381Z,3.40
2018-12-26T12:57:25.271Z,3.40
2018-12-26T12:59:56.412Z,3.50
2018-12-26T13:02:27.680Z,3.50
2018-12-26T13:04:58.845Z,3.50
2018-12-26T13:07:29.991Z,3.50
2018-12-26T13:10:01.251Z,3.50
2018-12-26T13:12:32.688Z,3.50
2018-12-26T13:15:03.906Z,3.50
2018-12-26T13:17:35.240Z,3.50
2018-12-26T13:20:07.285Z,3.60
2018-12-26T13:22:38.557Z,3.60
2018-12-26T13:25:09.688Z,3.60
2018-12-26T13:27:40.781Z,3.60
2018-12-26T13:30:11.904Z,3.70
2018-12-26T13:32:43.216Z,3.70
2018-12-26T13:35:14.423Z,3.70
2018-12-26T13:37:45.507Z,3.80
2018-12-26T13:40:16.700Z,3.80
2018-12-26T13:42:47.846Z,3.80
2018-12-26T13:45:18.990Z,3.90
2018-12-26T13:47:50.171Z,3.90
2018-12-26T13:50:21.238Z,3.90
2018-12-26T13:52:53.750Z,4.00
2018-12-26T13:55:24.939Z,4.00
2018-12-26T13:57:56.114Z,4.10
2018-12-26T14:00:27.326Z,4.10
2018-12-26T14:02:58.450Z,4.20
2018-12-26T14:05:29.671Z,4.10
2018-12-26T14:08:00.786Z,4.20
2018-12-26T14:10:31.987Z,4.20
2018-12-26T14:13:03.043Z,4.20
2018-12-26T14:15:34.238Z,4.20
2018-12-26T14:18:05.461Z,4.20
2018-12-26T14:20:36.512Z,4.20
2018-12-26T14:23:07.590Z,4.20
2018-12-26T14:25:38.796Z,4.30
2018-12-26T14:28:10.797Z,4.30
2018-12-26T14:30:41.966Z,4.30
2018-12-26T14:33:13.985Z,4.20
2018-12-26T14:35:51.608Z,4.20
2018-12-26T14:38:22.650Z,4.20
2018-12-26T14:40:53.855Z,4.20
2018-12-26T14:43:24.923Z,4.30
2018-12-26T14:45:56.165Z,4.30
2018-12-26T14:48:27.304Z,4.30
2018-12-26T14:50:58.403Z,4.30
2018-12-26T14:53:30.376Z,4.30
2018-12-26T14:56:01.726Z,4.30
2018-12-26T14:58:33.051Z,4.40
2018-12-26T15:01:04.171Z,4.40
2018-12-26T15:03:35.422Z,4.40
2018-12-26T15:06:06.528Z,4.40
2018-12-26T15:08:37.568Z,4.40
2018-12-26T15:11:08.837Z,4.50
2018-12-26T15:13:40.060Z,4.50
2018-12-26T15:16:11.183Z,4.50
2018-12-26T15:18:42.324Z,4.50
2018-12-26T15:21:13.457Z,4.50
2018-12-26T15:23:44.574Z,4.50
2018-12-26T15:26:15.785Z,4.50
2018-12-26T15:28:46.919Z,4.50
2018-12-26T15:31:17.969Z,4.50
2018-12-26T15:33:49.200Z,4.50
2018-12-26T15:36:20.328Z,4.50
2018-12-26T15:38:51.476Z,4.50
2018-12-26T15:41:22.727Z,4.60
2018-12-26T15:43:54.081Z,4.60
2018-12-26T15:46:25.290Z,4.60
2018-12-26T15:48:56.311Z,4.60
2018-12-26T15:51:27.596Z,4.60
2018-12-26T15:53:59.953Z,4.60
2018-12-26T15:56:31.088Z,4.60
2018-12-26T15:59:03.196Z,4.60
2018-12-26T16:01:34.353Z,4.60
2018-12-26T16:04:05.535Z,4.60
2018-12-26T16:06:36.661Z,4.70
2018-12-26T16:09:08.335Z,4.70
2018-12-26T16:11:39.585Z,4.70
2018-12-26T16:14:10.696Z,4.70
2018-12-26T16:16:41.788Z,4.80
2018-12-26T16:19:12.767Z,4.70
2018-12-26T16:21:43.836Z,4.70
2018-12-26T16:24:14.882Z,4.70
2018-12-26T16:26:46.155Z,4.70
2018-12-26T16:29:17.225Z,4.70
2018-12-26T16:31:48.232Z,4.80
2018-12-26T16:34:19.475Z,4.90
2018-12-26T16:36:50.487Z,4.90
2018-12-26T16:39:21.778Z,4.90
2018-12-26T16:41:52.978Z,4.90
2018-12-26T16:44:24.074Z,4.90
2018-12-26T16:46:55.142Z,4.90
2018-12-26T16:49:26.333Z,4.80
2018-12-26T16:51:57.451Z,4.80
2018-12-26T16:54:29.786Z,4.80
2018-12-26T16:57:02.037Z,4.70
2018-12-26T16:59:33.582Z,4.60
2018-12-26T17:02:05.017Z,4.50
2018-12-26T17:04:36.162Z,4.50
2018-12-26T17:07:07.429Z,4.50
2018-12-26T17:09:38.513Z,4.40
2018-12-26T17:12:09.889Z,4.40
2018-12-26T17:14:40.910Z,4.30
2018-12-26T17:17:12.142Z,4.30
2018-12-26T17:19:43.376Z,4.30
2018-12-26T17:22:14.472Z,4.30
2018-12-26T17:24:45.678Z,4.30
2018-12-26T17:27:16.919Z,4.40
2018-12-26T17:29:48.154Z,4.40
2018-12-26T17:32:19.366Z,4.40
2018-12-26T17:34:50.481Z,4.50
2018-12-26T17:37:21.668Z,4.60
2018-12-26T17:39:52.905Z,4.50
2018-12-26T17:42:24.044Z,4.50
2018-12-26T17:44:55.371Z,4.40
2018-12-26T17:47:26.489Z,4.40
2018-12-26T17:50:32.716Z,4.30
2018-12-26T17:53:04.578Z,4.10
2018-12-26T17:56:11.690Z,4.10
2018-12-26T17:58:48.844Z,4.10
2018-12-26T18:01:41.886Z,4.30
2018-12-26T18:04:13.104Z,4.40
2018-12-26T18:06:44.330Z,4.80
2018-12-26T18:09:15.516Z,5.10
2018-12-26T18:11:46.544Z,5.00
2018-12-26T18:14:18.687Z,5.00
2018-12-26T18:16:49.975Z,5.10
2018-12-26T18:19:21.047Z,5.20
2018-12-26T18:21:52.161Z,5.20
2018-12-26T18:24:23.564Z,5.30
2018-12-26T18:26:54.719Z,5.40
2018-12-26T18:29:25.869Z,5.30
2018-12-26T18:31:56.926Z,5.60
2018-12-26T18:34:28.220Z,5.60
2018-12-26T18:36:59.579Z,5.60
2018-12-26T18:39:30.745Z,5.70
2018-12-26T18:42:01.957Z,5.50
2018-12-26T18:44:33.246Z,5.30
2018-12-26T18:47:04.292Z,5.10
2018-12-26T18:49:35.480Z,4.80
2018-12-26T18:52:06.781Z,4.50
2018-12-26T18:54:37.972Z,4.50
2018-12-26T18:57:09.247Z,4.60
2018-12-26T18:59:40.457Z,4.60
2018-12-26T19:02:12.196Z,4.40
2018-12-26T19:04:43.432Z,4.20
2018-12-26T19:07:14.627Z,4.00
2018-12-26T19:09:45.723Z,3.80
2018-12-26T19:12:17.925Z,3.70
2018-12-26T19:14:49.072Z,3.60
2018-12-26T19:17:20.386Z,3.60
2018-12-26T19:19:51.570Z,3.50
2018-12-26T19:22:22.726Z,3.50
2018-12-26T19:24:53.844Z,3.50
2018-12-26T19:27:25.000Z,3.50
2018-12-26T19:29:59.514Z,3.50
2018-12-26T19:32:28.911Z,3.50
2018-12-26T19:35:00.009Z,3.50
2018-12-26T19:37:32.188Z,3.40
2018-12-26T19:40:03.556Z,3.40
2018-12-26T19:42:37.480Z,3.40
2018-12-26T19:45:08.741Z,3.40
2018-12-26T19:47:39.827Z,3.30
2018-12-26T19:50:11.363Z,3.30
2018-12-26T19:52:42.599Z,3.30
2018-12-26T19:55:13.879Z,3.30
2018-12-26T19:57:45.947Z,3.30
2018-12-26T20:00:17.242Z,3.30
2018-12-26T20:02:48.544Z,3.30
2018-12-26T20:05:19.745Z,3.20
2018-12-26T20:07:50.910Z,3.20
2018-12-26T20:10:22.196Z,3.20
2018-12-26T20:12:53.394Z,3.20
2018-12-26T20:15:24.692Z,3.20
2018-12-26T20:17:55.931Z,3.30
2018-12-26T20:20:27.183Z,3.30
2018-12-26T20:22:58.561Z,3.30
2018-12-26T20:25:29.888Z,3.30
2018-12-26T20:28:01.064Z,3.30
2018-12-26T20:30:32.320Z,3.30
2018-12-26T20:33:03.546Z,3.30
2018-12-26T20:35:34.665Z,3.30
2018-12-26T20:38:05.889Z,3.10
2018-12-26T20:40:37.074Z,3.00
2018-12-26T20:43:08.266Z,2.90
2018-12-26T20:45:39.560Z,2.90
2018-12-26T20:48:10.761Z,2.90
2018-12-26T20:50:41.947Z,3.00
2018-12-26T20:53:13.138Z,2.90
2018-12-26T20:55:44.278Z,2.80
2018-12-26T20:58:16.844Z,2.80
2018-12-26T21:00:47.905Z,2.70
2018-12-26T21:03:20.026Z,2.80
2018-12-26T21:05:51.271Z,2.70
2018-12-26T21:08:22.450Z,2.80
2018-12-26T21:10:53.889Z,2.80
2018-12-26T21:13:25.144Z,2.90
2018-12-26T21:15:56.378Z,3.00
2018-12-26T21:18:27.635Z,2.80
2018-12-26T21:20:58.771Z,2.90
2018-12-26T21:23:30.018Z,2.80
2018-12-26T21:26:01.521Z,2.80
2018-12-26T21:28:32.917Z,2.80
2018-12-26T21:31:04.106Z,2.80
2018-12-26T21:33:35.384Z,2.90
2018-12-26T21:36:09.530Z,3.00
2018-12-26T21:38:40.823Z,3.00
2018-12-26T21:41:12.141Z,3.00
2018-12-26T21:43:43.245Z,3.00
2018-12-26T21:46:14.578Z,3.00
2018-12-26T22:06:33.528Z,2.90
2018-12-26T22:09:06.403Z,2.90
2018-12-26T22:11:37.615Z,3.00
2018-12-26T22:14:08.810Z,3.00
2018-12-26T22:16:39.913Z,2.90
2018-12-26T22:19:12.857Z,2.90
2018-12-26T22:21:43.808Z,2.90
2018-12-26T22:24:15.074Z,2.80
2018-12-26T22:26:46.309Z,2.80
2018-12-26T22:29:17.479Z,2.90
2018-12-26T22:31:48.769Z,2.90
2018-12-26T22:34:20.145Z,2.90
2018-12-26T22:36:51.311Z,2.90
2018-12-26T22:39:22.514Z,2.90
2018-12-26T22:41:53.761Z,2.90
2018-12-26T22:44:27.824Z,2.90
2018-12-26T22:46:57.745Z,2.90
2018-12-26T22:49:28.916Z,2.90
2018-12-26T22:52:00.449Z,2.90
2018-12-26T22:54:31.653Z,2.90
2018-12-26T22:57:02.924Z,3.00
2018-12-26T22:59:34.110Z,3.00
2018-12-26T23:02:06.170Z,3.00
2018-12-26T23:04:37.411Z,3.10
2018-12-26T23:07:09.197Z,3.10
2018-12-26T23:09:40.577Z,3.10
2018-12-26T23:12:11.769Z,3.00
2018-12-26T23:14:42.832Z,3.00
2018-12-26T23:17:13.957Z,2.90
2018-12-26T23:19:45.126Z,2.80
2018-12-26T23:22:16.158Z,2.80
2018-12-26T23:24:47.332Z,2.80
2018-12-26T23:27:19.606Z,2.90
2018-12-26T23:29:50.852Z,2.90
2018-12-26T23:32:22.104Z,2.90
2018-12-26T23:34:53.204Z,2.80
2018-12-26T23:37:24.372Z,2.70
2018-12-26T23:39:56.610Z,2.60
2018-12-26T23:42:27.746Z,2.60
2018-12-26T23:44:58.799Z,2.50
2018-12-26T23:47:29.950Z,2.50
2018-12-26T23:50:01.228Z,2.50
2018-12-26T23:52:32.553Z,2.50
2018-12-26T23:55:03.712Z,2.50
2018-12-26T23:57:34.832Z,2.60
